createdAt,value
2019-06-26T00:02:01.535Z,12.97
2019-06-26T00:04:30.364Z,14.60
2019-06-26T00:06:59.195Z,13.20
2019-06-26T00:09:28.041Z,14.53
2019-06-26T00:11:56.889Z,14.10
2019-06-26T00:14:25.791Z,13.27
2019-06-26T00:16:55.099Z,15.00
2019-06-26T00:19:23.934Z,13.73
2019-06-26T00:21:52.933Z,12.93
2019-06-26T00:24:21.800Z,15.00
2019-06-26T00:26:50.644Z,13.70
2019-06-26T00:29:19.432Z,13.50
2019-06-26T00:31:48.161Z,14.13
2019-06-26T00:34:16.883Z,13.77
2019-06-26T00:36:45.934Z,13.47
2019-06-26T00:39:14.980Z,15.60
2019-06-26T00:41:43.805Z,13.27
2019-06-26T00:44:12.847Z,14.20
2019-06-26T00:46:41.637Z,14.20
2019-06-26T00:49:10.384Z,15.03
2019-06-26T00:51:39.750Z,14.40
2019-06-26T00:54:08.599Z,14.33
2019-06-26T00:56:37.696Z,16.17
2019-06-26T00:59:06.699Z,13.10
2019-06-26T01:01:35.564Z,14.77
2019-06-26T01:04:09.173Z,14.83
2019-06-26T01:06:44.244Z,15.17
2019-06-26T01:09:14.221Z,15.30
2019-06-26T01:11:43.194Z,15.67
2019-06-26T01:14:12.102Z,15.13
2019-06-26T01:16:41.014Z,15.87
2019-06-26T01:19:09.911Z,16.67
2019-06-26T01:21:38.628Z,14.90
2019-06-26T01:24:07.695Z,15.03
2019-06-26T01:26:36.965Z,15.10
2019-06-26T01:29:06.024Z,15.27
2019-06-26T01:31:34.755Z,15.63
2019-06-26T01:34:03.812Z,14.90
2019-06-26T01:36:33.047Z,13.67
2019-06-26T01:39:02.192Z,15.70
2019-06-26T01:41:31.264Z,16.47
2019-06-26T01:44:13.592Z,16.73
2019-06-26T01:46:30.492Z,15.63
2019-06-26T01:48:59.240Z,15.60
2019-06-26T01:51:28.048Z,16.03
2019-06-26T01:53:56.776Z,16.77
2019-06-26T01:56:25.622Z,16.70
2019-06-26T01:58:54.406Z,15.90
2019-06-26T02:01:23.277Z,17.30
2019-06-26T02:03:52.331Z,16.03
2019-06-26T02:06:21.390Z,17.47
2019-06-26T02:08:50.183Z,16.50
2019-06-26T02:11:18.982Z,15.03
2019-06-26T02:13:48.450Z,16.63
2019-06-26T02:16:17.541Z,16.90
2019-06-26T02:18:50.608Z,17.60
2019-06-26T02:21:19.426Z,16.73
2019-06-26T02:23:48.469Z,17.23
2019-06-26T02:26:17.467Z,18.50
2019-06-26T02:28:46.277Z,16.43
2019-06-26T02:31:15.581Z,16.30
2019-06-26T02:33:44.344Z,17.33
2019-06-26T02:36:13.195Z,16.80
2019-06-26T02:38:42.044Z,17.00
2019-06-26T02:41:10.870Z,17.30
2019-06-26T02:43:39.672Z,17.40
2019-06-26T02:46:08.549Z,17.23
2019-06-26T02:48:37.592Z,18.37
2019-06-26T02:51:06.493Z,18.87
2019-06-26T02:53:35.366Z,18.70
2019-06-26T02:56:04.366Z,18.03
2019-06-26T02:58:33.461Z,18.00
2019-06-26T03:01:02.283Z,17.53
2019-06-26T03:03:31.066Z,18.50
2019-06-26T03:06:00.163Z,19.80
2019-06-26T03:08:28.983Z,18.63
2019-06-26T03:10:58.395Z,19.87
2019-06-26T03:13:27.220Z,19.00
2019-06-26T03:15:56.012Z,19.03
2019-06-26T03:18:24.812Z,18.70
2019-06-26T03:20:55.965Z,20.87
2019-06-26T03:23:25.177Z,20.40
2019-06-26T03:25:54.028Z,19.37
2019-06-26T03:28:22.864Z,19.90
2019-06-26T03:30:51.668Z,19.60
2019-06-26T03:33:20.751Z,19.83
2019-06-26T03:35:49.570Z,21.13
2019-06-26T03:38:18.374Z,20.37
2019-06-26T03:40:47.355Z,22.63
2019-06-26T03:43:16.597Z,20.00
2019-06-26T03:45:45.737Z,21.43
2019-06-26T03:48:14.499Z,20.20
2019-06-26T03:50:43.283Z,20.60
2019-06-26T03:53:12.347Z,20.13
2019-06-26T03:55:42.028Z,21.53
2019-06-26T03:58:11.130Z,21.93
2019-06-26T04:00:41.237Z,19.73
2019-06-26T04:03:17.512Z,20.87
2019-06-26T04:05:49.982Z,21.17
2019-06-26T04:08:24.859Z,19.97
2019-06-26T04:10:59.614Z,19.53
2019-06-26T04:13:36.650Z,21.13
2019-06-26T04:16:16.475Z,21.17
2019-06-26T04:18:45.764Z,21.87
2019-06-26T04:21:28.237Z,20.23
2019-06-26T04:23:57.103Z,21.13
2019-06-26T04:26:27.481Z,20.73
2019-06-26T04:28:56.377Z,20.23
2019-06-26T04:31:25.143Z,20.03
2019-06-26T04:33:54.168Z,19.00
2019-06-26T04:36:23.209Z,20.17
2019-06-26T04:38:51.943Z,21.97
2019-06-26T04:41:20.766Z,19.93
2019-06-26T04:43:49.497Z,19.50
2019-06-26T04:46:18.469Z,20.63
2019-06-26T04:48:47.231Z,20.80
2019-06-26T04:51:16.409Z,20.03
2019-06-26T04:53:45.398Z,21.33
2019-06-26T04:56:15.776Z,19.83
2019-06-26T04:58:44.939Z,21.67
2019-06-26T05:01:14.056Z,21.20
2019-06-26T05:03:42.903Z,17.97
2019-06-26T05:06:11.716Z,19.77
2019-06-26T05:08:40.547Z,19.73
2019-06-26T05:11:12.627Z,19.07
2019-06-26T05:13:40.068Z,20.40
2019-06-26T05:16:15.090Z,19.93
2019-06-26T05:18:39.374Z,17.90
2019-06-26T05:21:08.112Z,18.43
2019-06-26T05:23:36.865Z,19.77
2019-06-26T05:26:05.587Z,18.97
2019-06-26T05:28:34.440Z,19.80
2019-06-26T05:31:03.520Z,18.07
2019-06-26T05:33:32.260Z,17.80
2019-06-26T05:36:01.038Z,17.90
2019-06-26T05:38:29.792Z,17.63
2019-06-26T05:40:58.569Z,17.30
2019-06-26T05:43:27.610Z,19.37
2019-06-26T05:45:56.958Z,18.70
2019-06-26T05:48:25.779Z,18.70
2019-06-26T05:50:54.639Z,17.83
2019-06-26T05:53:23.407Z,17.97
2019-06-26T05:55:52.252Z,17.80
2019-06-26T05:58:21.016Z,19.13
2019-06-26T06:00:49.876Z,17.57
2019-06-26T06:03:18.729Z,17.23
2019-06-26T06:05:47.546Z,18.40
2019-06-26T06:08:16.374Z,17.87
2019-06-26T06:10:45.458Z,17.83
2019-06-26T06:13:14.286Z,16.77
2019-06-26T06:15:43.040Z,16.73
2019-06-26T06:18:12.149Z,17.40
2019-06-26T06:20:41.399Z,17.40
2019-06-26T06:23:10.224Z,18.17
2019-06-26T06:25:38.998Z,16.23
2019-06-26T06:28:07.782Z,16.07
2019-06-26T06:30:36.569Z,14.20
2019-06-26T06:33:05.383Z,16.10
2019-06-26T06:35:34.200Z,17.00
2019-06-26T06:38:03.215Z,15.93
2019-06-26T06:40:32.064Z,17.43
2019-06-26T06:43:00.839Z,15.03
2019-06-26T06:45:29.801Z,15.53
2019-06-26T06:47:58.674Z,14.20
2019-06-26T06:50:27.495Z,16.33
2019-06-26T06:52:56.668Z,14.13
2019-06-26T06:55:25.441Z,13.63
2019-06-26T06:57:54.251Z,14.83
2019-06-26T07:00:23.484Z,14.13
2019-06-26T07:02:52.539Z,13.97
2019-06-26T07:05:21.280Z,12.30
2019-06-26T07:07:50.358Z,12.97
2019-06-26T07:10:19.817Z,13.00
2019-06-26T07:12:48.706Z,13.73
2019-06-26T07:15:17.906Z,12.90
2019-06-26T07:17:46.714Z,13.27
2019-06-26T07:20:15.948Z,13.50
2019-06-26T07:22:44.783Z,13.43
2019-06-26T07:25:14.795Z,13.10
2019-06-26T07:27:43.652Z,14.20
2019-06-26T07:30:13.273Z,12.50
2019-06-26T07:32:41.998Z,11.90
2019-06-26T07:35:12.260Z,11.93
2019-06-26T07:37:40.987Z,12.33
2019-06-26T07:40:10.614Z,12.83
2019-06-26T07:42:39.433Z,12.30
2019-06-26T07:45:08.390Z,12.10
2019-06-26T07:47:43.326Z,11.33
2019-06-26T07:50:07.769Z,10.67
2019-06-26T07:52:36.654Z,10.80
2019-06-26T07:55:05.810Z,9.73
2019-06-26T07:57:34.576Z,9.07
2019-06-26T08:00:03.719Z,9.23
2019-06-26T08:02:32.504Z,9.93
2019-06-26T08:05:01.233Z,9.63
2019-06-26T08:07:29.931Z,8.50
2019-06-26T08:09:58.650Z,9.53
2019-06-26T08:12:27.632Z,8.63
2019-06-26T08:14:56.390Z,8.60
2019-06-26T08:17:25.183Z,8.50
2019-06-26T08:19:54.171Z,7.90
2019-06-26T08:22:22.916Z,7.50
2019-06-26T08:24:51.673Z,8.80
2019-06-26T08:27:20.471Z,8.40
2019-06-26T08:29:49.253Z,7.60
2019-06-26T08:32:18.008Z,8.50
2019-06-26T08:34:46.775Z,8.37
2019-06-26T08:37:15.500Z,8.10
2019-06-26T08:39:44.273Z,8.77
2019-06-26T08:42:13.075Z,8.43
2019-06-26T08:44:41.856Z,8.33
2019-06-26T08:47:10.639Z,8.70
2019-06-26T08:49:39.420Z,7.73
2019-06-26T08:52:08.383Z,7.83
2019-06-26T08:54:37.143Z,8.87
2019-06-26T08:57:05.895Z,8.90
2019-06-26T08:59:34.723Z,9.40
2019-06-26T09:02:03.459Z,8.73
2019-06-26T09:04:32.488Z,8.90
2019-06-26T09:07:01.607Z,8.87
2019-06-26T09:09:30.349Z,9.43
2019-06-26T09:11:59.279Z,8.17
2019-06-26T09:14:28.181Z,9.77
2019-06-26T09:16:57.233Z,8.50
2019-06-26T09:19:26.065Z,8.10
2019-06-26T09:21:54.871Z,7.63
2019-06-26T09:24:24.025Z,8.80
2019-06-26T09:26:53.119Z,8.97
2019-06-26T09:29:23.973Z,8.90
2019-06-26T09:31:52.616Z,7.13
2019-06-26T09:34:21.460Z,8.20
2019-06-26T09:36:50.243Z,8.10
2019-06-26T09:39:19.284Z,7.97
2019-06-26T09:41:48.348Z,9.27
2019-06-26T09:44:17.075Z,8.37
2019-06-26T09:46:46.016Z,8.10
2019-06-26T09:49:14.732Z,9.20
2019-06-26T09:51:43.624Z,9.00
2019-06-26T09:54:12.390Z,8.57
2019-06-26T09:56:41.225Z,7.90
2019-06-26T09:59:10.291Z,7.50
2019-06-26T10:01:39.606Z,7.80
2019-06-26T10:04:08.596Z,7.97
2019-06-26T10:06:37.659Z,7.87
2019-06-26T10:09:08.378Z,8.70
2019-06-26T10:11:37.730Z,7.17
2019-06-26T10:14:07.125Z,8.07
2019-06-26T10:16:35.950Z,6.97
2019-06-26T10:19:10.232Z,7.27
2019-06-26T10:21:35.847Z,8.07
2019-06-26T10:24:04.686Z,7.00
2019-06-26T10:26:33.477Z,8.33
2019-06-26T10:29:02.436Z,8.80
2019-06-26T10:31:31.211Z,8.20
2019-06-26T10:34:02.551Z,7.03
2019-06-26T10:36:31.306Z,7.57
2019-06-26T10:39:00.281Z,7.63
2019-06-26T10:41:29.386Z,7.30
2019-06-26T10:43:58.412Z,7.60
2019-06-26T10:46:27.579Z,8.33
2019-06-26T10:48:56.504Z,8.60
2019-06-26T10:51:25.328Z,7.83
2019-06-26T10:53:54.071Z,7.57
2019-06-26T10:56:22.980Z,8.43
2019-06-26T10:58:51.703Z,7.23
2019-06-26T11:01:20.607Z,8.13
2019-06-26T11:03:49.435Z,8.47
2019-06-26T11:06:18.246Z,8.57
2019-06-26T11:08:47.115Z,7.97
2019-06-26T11:11:15.965Z,8.43
2019-06-26T11:13:44.951Z,8.10
2019-06-26T11:16:13.695Z,7.70
2019-06-26T11:18:42.612Z,8.13
2019-06-26T11:21:11.655Z,7.43
2019-06-26T11:23:40.573Z,7.73
2019-06-26T11:26:09.603Z,8.70
2019-06-26T11:28:38.356Z,8.90
2019-06-26T11:31:07.164Z,8.80
2019-06-26T11:33:36.471Z,8.13
2019-06-26T11:36:05.307Z,7.67
2019-06-26T11:38:34.123Z,9.00
2019-06-26T11:41:02.939Z,7.63
2019-06-26T11:43:31.714Z,9.17
2019-06-26T11:46:00.437Z,8.97
2019-06-26T11:48:29.191Z,8.80
2019-06-26T11:50:57.900Z,8.93
2019-06-26T11:53:26.701Z,8.57
2019-06-26T11:55:55.672Z,8.73
2019-06-26T11:58:24.530Z,8.67
2019-06-26T12:00:53.349Z,9.57
2019-06-26T12:03:22.259Z,10.07
2019-06-26T12:05:51.296Z,9.20
2019-06-26T12:08:20.435Z,9.50
2019-06-26T12:10:49.172Z,9.67
2019-06-26T12:13:17.889Z,9.23
2019-06-26T12:15:46.660Z,9.63
2019-06-26T12:18:15.518Z,9.83
2019-06-26T12:20:44.333Z,10.37
2019-06-26T12:23:13.177Z,10.10
2019-06-26T12:25:42.068Z,9.00
2019-06-26T12:28:10.851Z,9.53
2019-06-26T12:30:39.630Z,10.33
2019-06-26T12:33:08.510Z,9.17
2019-06-26T12:35:37.471Z,9.67
2019-06-26T12:38:06.543Z,9.00
2019-06-26T12:40:35.250Z,9.10
2019-06-26T12:43:04.132Z,10.00
2019-06-26T12:45:33.133Z,8.90
2019-06-26T12:48:01.889Z,8.50
2019-06-26T12:50:35.910Z,11.03
2019-06-26T12:53:01.305Z,9.47
2019-06-26T12:55:32.895Z,9.67
2019-06-26T12:58:12.232Z,9.53
2019-06-26T13:00:31.017Z,9.77
2019-06-26T13:03:02.479Z,13.97
2019-06-26T13:05:31.235Z,9.67
2019-06-26T13:08:00.036Z,9.60
2019-06-26T13:10:28.847Z,8.57
2019-06-26T13:12:57.857Z,9.77
2019-06-26T13:15:26.643Z,9.90
2019-06-26T13:17:55.981Z,9.77
2019-06-26T13:20:24.827Z,10.37
2019-06-26T13:22:53.665Z,9.03
2019-06-26T13:25:22.554Z,10.47
2019-06-26T13:27:54.366Z,9.77
2019-06-26T13:30:30.264Z,9.27
2019-06-26T13:32:59.130Z,9.40
2019-06-26T13:35:27.944Z,9.80
2019-06-26T13:37:56.867Z,9.53
2019-06-26T13:40:25.647Z,9.63
2019-06-26T13:42:54.635Z,8.87
2019-06-26T13:45:23.430Z,8.40
2019-06-26T13:47:52.278Z,8.63
2019-06-26T13:50:21.183Z,9.20
2019-06-26T13:52:49.927Z,8.40
2019-06-26T13:55:18.707Z,8.60
2019-06-26T13:57:47.948Z,8.50
2019-06-26T14:00:16.942Z,8.73
2019-06-26T14:02:45.751Z,9.93
2019-06-26T14:05:14.709Z,8.60
2019-06-26T14:07:43.504Z,10.40
2019-06-26T14:10:12.556Z,8.70
2019-06-26T14:12:41.611Z,9.60
2019-06-26T14:15:10.499Z,9.03
2019-06-26T14:17:39.284Z,8.87
2019-06-26T14:20:10.207Z,8.60
2019-06-26T14:22:39.023Z,10.30
2019-06-26T14:25:08.168Z,9.87
2019-06-26T14:27:36.960Z,8.57
2019-06-26T14:30:06.407Z,8.40
2019-06-26T14:32:35.234Z,8.70
2019-06-26T14:35:07.020Z,9.97
2019-06-26T14:37:35.844Z,9.57
2019-06-26T14:40:05.151Z,8.60
2019-06-26T14:42:35.464Z,10.37
2019-06-26T14:45:05.356Z,10.63
2019-06-26T14:47:35.644Z,10.47
2019-06-26T14:50:04.826Z,10.27
2019-06-26T14:52:35.160Z,11.30
2019-06-26T14:55:04.182Z,9.60
2019-06-26T14:57:32.962Z,8.83
2019-06-26T15:00:02.064Z,10.13
2019-06-26T15:02:31.945Z,9.80
2019-06-26T15:05:00.984Z,10.90
2019-06-26T15:07:29.954Z,10.80
2019-06-26T15:09:58.759Z,10.67
2019-06-26T15:12:27.599Z,10.13
2019-06-26T15:14:56.655Z,9.07
2019-06-26T15:17:25.665Z,11.17
2019-06-26T15:19:54.577Z,10.03
2019-06-26T15:22:23.416Z,10.70
2019-06-26T15:24:52.658Z,9.30
2019-06-26T15:27:21.438Z,10.70
2019-06-26T15:29:50.209Z,10.03
2019-06-26T15:32:19.056Z,9.20
2019-06-26T15:34:47.869Z,13.27
2019-06-26T15:37:16.634Z,10.17
2019-06-26T15:39:45.887Z,10.03
2019-06-26T15:42:14.872Z,10.57
2019-06-26T15:44:43.645Z,11.50
2019-06-26T15:47:13.605Z,10.10
2019-06-26T15:49:42.424Z,13.00
2019-06-26T15:52:15.297Z,11.43
2019-06-26T15:54:41.958Z,11.27
2019-06-26T15:57:10.764Z,10.70
2019-06-26T15:59:39.548Z,10.70
2019-06-26T16:02:08.346Z,11.73
2019-06-26T16:04:37.461Z,12.37
2019-06-26T16:07:06.289Z,11.20
2019-06-26T16:09:35.039Z,11.10
2019-06-26T16:12:03.794Z,11.03
2019-06-26T16:14:32.757Z,12.57
2019-06-26T16:17:05.517Z,11.50
2019-06-26T16:19:34.276Z,10.60
2019-06-26T16:22:03.055Z,11.83
2019-06-26T16:24:31.885Z,11.70
2019-06-26T16:27:00.743Z,12.47
2019-06-26T16:29:29.553Z,13.80
2019-06-26T16:31:58.375Z,11.87
2019-06-26T16:34:27.116Z,12.83
2019-06-26T16:36:56.079Z,12.40
2019-06-26T16:39:24.813Z,12.47
2019-06-26T16:41:53.629Z,12.93
2019-06-26T16:44:22.486Z,11.60
2019-06-26T16:46:51.462Z,11.10
2019-06-26T16:49:20.250Z,12.30
2019-06-26T16:51:49.027Z,12.17
2019-06-26T16:54:17.792Z,12.10
2019-06-26T16:56:46.608Z,12.23
2019-06-26T16:59:15.343Z,11.70
2019-06-26T17:01:44.079Z,11.97
2019-06-26T17:04:13.109Z,11.83
2019-06-26T17:06:42.107Z,13.33
2019-06-26T17:09:10.939Z,13.10
2019-06-26T17:11:39.932Z,14.37
2019-06-26T17:14:11.659Z,13.13
2019-06-26T17:16:40.435Z,13.13
2019-06-26T17:19:09.252Z,12.43
2019-06-26T17:21:38.349Z,12.30
2019-06-26T17:24:07.136Z,13.67
2019-06-26T17:26:35.938Z,12.50
2019-06-26T17:29:04.780Z,12.10
2019-06-26T17:31:35.280Z,13.57
2019-06-26T17:34:04.141Z,12.73
2019-06-26T17:36:32.976Z,12.27
2019-06-26T17:39:02.047Z,12.23
2019-06-26T17:41:31.166Z,13.00
2019-06-26T17:44:00.121Z,12.20
2019-06-26T17:46:29.198Z,11.90
2019-06-26T17:48:58.028Z,12.37
2019-06-26T17:51:26.823Z,12.10
2019-06-26T17:53:55.619Z,12.77
2019-06-26T17:56:24.704Z,15.13
2019-06-26T17:58:53.780Z,14.97
2019-06-26T18:01:25.066Z,12.83
2019-06-26T18:03:53.888Z,13.63
2019-06-26T18:06:22.710Z,14.83
2019-06-26T18:08:51.565Z,13.10
2019-06-26T18:11:20.385Z,13.60
2019-06-26T18:13:49.425Z,14.27
2019-06-26T18:16:18.154Z,15.37
2019-06-26T18:18:46.991Z,16.80
2019-06-26T18:21:15.807Z,13.67
2019-06-26T18:23:45.080Z,13.50
2019-06-26T18:26:14.156Z,13.67
2019-06-26T18:28:42.867Z,14.03
2019-06-26T18:31:11.995Z,13.73
2019-06-26T18:33:44.180Z,12.77
2019-06-26T18:36:11.477Z,13.20
2019-06-26T18:38:40.553Z,14.70
2019-06-26T18:41:09.478Z,13.70
2019-06-26T18:43:38.296Z,13.23
2019-06-26T18:46:07.574Z,13.33
2019-06-26T18:48:36.392Z,12.93
2019-06-26T18:51:05.176Z,12.00
2019-06-26T18:53:33.998Z,10.97
2019-06-26T18:56:02.802Z,12.30
2019-06-26T18:58:31.845Z,12.80
2019-06-26T19:01:00.674Z,12.03
2019-06-26T19:03:29.541Z,11.77
2019-06-26T19:05:58.400Z,13.10
2019-06-26T19:08:27.146Z,12.20
2019-06-26T19:10:55.927Z,12.53
2019-06-26T19:13:24.714Z,12.60
2019-06-26T19:15:53.599Z,12.10
2019-06-26T19:18:22.389Z,13.23
2019-06-26T19:20:51.135Z,12.07
2019-06-26T19:23:20.137Z,12.00
2019-06-26T19:25:48.888Z,12.50
2019-06-26T19:28:17.633Z,12.33
2019-06-26T19:30:46.408Z,12.43
2019-06-26T19:33:15.218Z,12.43
2019-06-26T19:35:44.100Z,11.90
2019-06-26T19:38:14.981Z,13.10
2019-06-26T19:40:44.005Z,13.20
2019-06-26T19:43:13.083Z,13.03
2019-06-26T19:45:41.941Z,13.43
2019-06-26T19:48:10.831Z,13.33
2019-06-26T19:50:39.599Z,10.97
2019-06-26T19:53:08.385Z,13.63
2019-06-26T19:55:37.157Z,12.10
2019-06-26T19:58:05.900Z,11.67
2019-06-26T20:00:34.627Z,11.63
2019-06-26T20:03:03.497Z,12.10
2019-06-26T20:05:32.236Z,12.33
2019-06-26T20:08:01.079Z,12.20
2019-06-26T20:10:29.846Z,12.50
2019-06-26T20:12:58.624Z,12.57
2019-06-26T20:15:27.405Z,14.50
2019-06-26T20:17:56.187Z,13.23
2019-06-26T20:20:24.985Z,11.57
2019-06-26T20:22:54.080Z,11.97
2019-06-26T20:25:23.069Z,11.60
2019-06-26T20:27:56.863Z,11.27
2019-06-26T20:30:25.913Z,11.80
2019-06-26T20:32:54.676Z,12.80
2019-06-26T20:35:23.455Z,11.20
2019-06-26T20:37:52.660Z,12.10
2019-06-26T20:40:21.670Z,12.07
2019-06-26T20:42:50.523Z,13.13
2019-06-26T20:45:19.501Z,11.73
2019-06-26T20:47:48.833Z,13.07
2019-06-26T20:50:19.613Z,12.60
2019-06-26T20:52:48.536Z,13.27
2019-06-26T20:55:17.491Z,13.87
2019-06-26T20:57:46.219Z,11.83
2019-06-26T21:00:15.395Z,11.40
2019-06-26T21:02:44.125Z,12.37
2019-06-26T21:05:13.374Z,12.63
2019-06-26T21:07:42.189Z,11.60
2019-06-26T21:10:11.403Z,11.93
2019-06-26T21:12:40.372Z,12.03
2019-06-26T21:15:09.854Z,12.13
2019-06-26T21:17:38.703Z,11.27
2019-06-26T21:20:08.441Z,11.50
2019-06-26T21:22:37.290Z,10.43
2019-06-26T21:25:17.798Z,10.73
2019-06-26T21:27:37.118Z,10.80
2019-06-26T21:30:06.283Z,12.00
2019-06-26T21:32:35.117Z,11.67
2019-06-26T21:35:04.076Z,10.60
2019-06-26T21:37:32.907Z,11.07
2019-06-26T21:40:01.848Z,11.67
2019-06-26T21:42:30.597Z,11.10
2019-06-26T21:44:59.573Z,10.70
2019-06-26T21:47:28.803Z,10.70
2019-06-26T21:49:57.564Z,10.07
2019-06-26T21:52:26.651Z,10.47
2019-06-26T21:54:55.485Z,9.73
2019-06-26T21:57:24.464Z,10.87
2019-06-26T21:59:53.291Z,9.50
2019-06-26T22:02:22.251Z,9.97
2019-06-26T22:04:51.506Z,10.90
2019-06-26T22:07:20.377Z,9.03
2019-06-26T22:09:49.431Z,10.43
2019-06-26T22:12:18.452Z,9.73
2019-06-26T22:14:47.268Z,9.57
2019-06-26T22:17:16.014Z,9.17
2019-06-26T22:19:44.780Z,10.77
2019-06-26T22:22:13.633Z,9.20
2019-06-26T22:24:42.755Z,8.70
2019-06-26T22:27:11.624Z,8.70
2019-06-26T22:29:40.699Z,10.17
2019-06-26T22:32:09.597Z,8.50
2019-06-26T22:34:38.603Z,10.30
2019-06-26T22:37:07.373Z,8.00
2019-06-26T22:39:36.227Z,9.20
2019-06-26T22:42:05.115Z,8.50
2019-06-26T22:44:33.872Z,9.20
2019-06-26T22:47:02.972Z,8.50
2019-06-26T22:49:31.780Z,8.50
2019-06-26T22:52:00.511Z,8.50
2019-06-26T22:54:29.255Z,8.57
2019-06-26T22:56:58.721Z,8.10
2019-06-26T22:59:27.814Z,8.33
2019-06-26T23:01:56.903Z,7.17
2019-06-26T23:04:25.711Z,8.00
2019-06-26T23:06:54.596Z,8.07
2019-06-26T23:09:23.396Z,8.83
2019-06-26T23:11:52.177Z,8.70
2019-06-26T23:14:20.996Z,9.00
2019-06-26T23:16:49.807Z,8.30
2019-06-26T23:19:18.556Z,7.90
2019-06-26T23:21:47.296Z,8.47
2019-06-26T23:24:16.047Z,9.10
2019-06-26T23:26:44.871Z,9.00
2019-06-26T23:29:13.620Z,8.67
2019-06-26T23:31:42.502Z,8.17
2019-06-26T23:34:11.323Z,8.60
2019-06-26T23:36:40.376Z,12.13
2019-06-26T23:39:09.383Z,8.00
2019-06-26T23:41:38.200Z,9.80
2019-06-26T23:44:06.995Z,9.03
2019-06-26T23:46:35.724Z,8.97
2019-06-26T23:49:04.900Z,7.20
2019-06-26T23:51:33.721Z,9.00
2019-06-26T23:54:02.565Z,8.27
2019-06-26T23:56:40.273Z,8.00
2019-06-26T23:59:02.187Z,7.43
